sensor_id;sensor_type;location;lat;lon;timestamp;P1;durP1;ratioP1;P2;durP2;ratioP2
22916;SDS011;11624;53.250;7.456;2023-12-20T00:02:18;1.13;;;0.75;;
22916;SDS011;11624;53.250;7.456;2023-12-20T00:04:46;0.45;;;0.45;;
22916;SDS011;11624;53.250;7.456;2023-12-20T00:07:15;1.55;;;0.40;;
22916;SDS011;11624;53.250;7.456;2023-12-20T00:09:43;0.13;;;0.13;;
22916;SDS011;11624;53.250;7.456;2023-12-20T00:12:11;1.52;;;0.82;;
22916;SDS011;11624;53.250;7.456;2023-12-20T00:14:40;0.25;;;0.25;;
22916;SDS011;11624;53.250;7.456;2023-12-20T00:17:09;0.22;;;0.22;;
22916;SDS011;11624;53.250;7.456;2023-12-20T00:19:37;0.15;;;0.15;;
22916;SDS011;11624;53.250;7.456;2023-12-20T00:22:06;0.10;;;0.10;;
22916;SDS011;11624;53.250;7.456;2023-12-20T00:24:34;0.10;;;0.10;;
22916;SDS011;11624;53.250;7.456;2023-12-20T00:27:02;0.10;;;0.10;;
22916;SDS011;11624;53.250;7.456;2023-12-20T00:29:31;0.32;;;0.32;;
22916;SDS011;11624;53.250;7.456;2023-12-20T00:31:59;2.55;;;0.65;;
22916;SDS011;11624;53.250;7.456;2023-12-20T00:34:28;0.30;;;0.30;;
22916;SDS011;11624;53.250;7.456;2023-12-20T00:36:57;0.00;;;0.00;;
22916;SDS011;11624;53.250;7.456;2023-12-20T00:39:25;0.17;;;0.17;;
22916;SDS011;11624;53.250;7.456;2023-12-20T00:41:53;0.20;;;0.20;;
22916;SDS011;11624;53.250;7.456;2023-12-20T00:44:21;3.33;;;1.85;;
22916;SDS011;11624;53.250;7.456;2023-12-20T00:46:49;1.33;;;0.73;;
22916;SDS011;11624;53.250;7.456;2023-12-20T00:49:18;2.45;;;0.82;;
22916;SDS011;11624;53.250;7.456;2023-12-20T00:51:47;0.73;;;0.25;;
22916;SDS011;11624;53.250;7.456;2023-12-20T00:54:17;0.20;;;0.20;;
22916;SDS011;11624;53.250;7.456;2023-12-20T00:56:45;0.70;;;0.25;;
22916;SDS011;11624;53.250;7.456;2023-12-20T00:59:13;0.30;;;0.30;;
22916;SDS011;11624;53.250;7.456;2023-12-20T01:01:42;0.28;;;0.28;;
22916;SDS011;11624;53.250;7.456;2023-12-20T01:04:10;0.77;;;0.68;;
22916;SDS011;11624;53.250;7.456;2023-12-20T01:06:38;1.48;;;0.98;;
22916;SDS011;11624;53.250;7.456;2023-12-20T01:09:08;0.50;;;0.40;;
22916;SDS011;11624;53.250;7.456;2023-12-20T01:11:36;0.10;;;0.10;;
22916;SDS011;11624;53.250;7.456;2023-12-20T01:14:04;2.00;;;1.00;;
22916;SDS011;11624;53.250;7.456;2023-12-20T01:16:32;0.20;;;0.20;;
22916;SDS011;11624;53.250;7.456;2023-12-20T01:19:01;0.20;;;0.20;;
22916;SDS011;11624;53.250;7.456;2023-12-20T01:21:29;0.98;;;0.65;;
22916;SDS011;11624;53.250;7.456;2023-12-20T01:23:57;0.32;;;0.32;;
22916;SDS011;11624;53.250;7.456;2023-12-20T01:26:27;1.30;;;0.70;;
22916;SDS011;11624;53.250;7.456;2023-12-20T01:28:55;1.50;;;0.45;;
22916;SDS011;11624;53.250;7.456;2023-12-20T01:31:23;2.17;;;0.95;;
22916;SDS011;11624;53.250;7.456;2023-12-20T01:33:53;0.17;;;0.17;;
22916;SDS011;11624;53.250;7.456;2023-12-20T01:36:22;0.10;;;0.10;;
22916;SDS011;11624;53.250;7.456;2023-12-20T01:38:50;0.80;;;0.75;;
22916;SDS011;11624;53.250;7.456;2023-12-20T01:41:18;0.90;;;0.65;;
22916;SDS011;11624;53.250;7.456;2023-12-20T01:43:48;0.10;;;0.10;;
22916;SDS011;11624;53.250;7.456;2023-12-20T01:46:17;0.20;;;0.20;;
22916;SDS011;11624;53.250;7.456;2023-12-20T01:48:47;1.35;;;0.57;;
22916;SDS011;11624;53.250;7.456;2023-12-20T01:51:16;0.10;;;0.10;;
22916;SDS011;11624;53.250;7.456;2023-12-20T01:53:45;0.20;;;0.20;;
22916;SDS011;11624;53.250;7.456;2023-12-20T01:56:14;0.43;;;0.43;;
22916;SDS011;11624;53.250;7.456;2023-12-20T01:58:44;0.40;;;0.40;;
22916;SDS011;11624;53.250;7.456;2023-12-20T02:01:14;0.57;;;0.52;;
22916;SDS011;11624;53.250;7.456;2023-12-20T02:03:43;0.22;;;0.22;;
22916;SDS011;11624;53.250;7.456;2023-12-20T02:06:12;0.25;;;0.25;;
22916;SDS011;11624;53.250;7.456;2023-12-20T02:08:41;1.88;;;0.85;;
22916;SDS011;11624;53.250;7.456;2023-12-20T02:11:09;0.25;;;0.25;;
22916;SDS011;11624;53.250;7.456;2023-12-20T02:13:38;0.20;;;0.20;;
22916;SDS011;11624;53.250;7.456;2023-12-20T02:16:06;2.25;;;0.68;;
22916;SDS011;11624;53.250;7.456;2023-12-20T02:18:36;1.13;;;0.98;;
22916;SDS011;11624;53.250;7.456;2023-12-20T02:21:04;0.52;;;0.35;;
22916;SDS011;11624;53.250;7.456;2023-12-20T02:23:34;0.10;;;0.10;;
22916;SDS011;11624;53.250;7.456;2023-12-20T02:26:02;0.70;;;0.47;;
22916;SDS011;11624;53.250;7.456;2023-12-20T02:28:32;0.35;;;0.35;;
22916;SDS011;11624;53.250;7.456;2023-12-20T02:31:02;5.47;;;0.57;;
22916;SDS011;11624;53.250;7.456;2023-12-20T02:33:30;28.15;;;2.20;;
22916;SDS011;11624;53.250;7.456;2023-12-20T02:35:58;0.10;;;0.10;;
22916;SDS011;11624;53.250;7.456;2023-12-20T02:38:27;0.10;;;0.10;;
22916;SDS011;11624;53.250;7.456;2023-12-20T02:40:56;0.43;;;0.43;;
22916;SDS011;11624;53.250;7.456;2023-12-20T02:43:24;0.30;;;0.30;;
22916;SDS011;11624;53.250;7.456;2023-12-20T02:45:53;0.43;;;0.43;;
22916;SDS011;11624;53.250;7.456;2023-12-20T02:48:21;3.30;;;0.68;;
22916;SDS011;11624;53.250;7.456;2023-12-20T02:50:50;4.20;;;1.08;;
22916;SDS011;11624;53.250;7.456;2023-12-20T02:53:19;0.17;;;0.17;;
22916;SDS011;11624;53.250;7.456;2023-12-20T02:55:47;0.20;;;0.20;;
22916;SDS011;11624;53.250;7.456;2023-12-20T02:58:16;0.10;;;0.10;;
22916;SDS011;11624;53.250;7.456;2023-12-20T03:00:45;0.25;;;0.25;;
22916;SDS011;11624;53.250;7.456;2023-12-20T03:03:13;2.33;;;1.42;;
22916;SDS011;11624;53.250;7.456;2023-12-20T03:05:41;1.45;;;0.73;;
22916;SDS011;11624;53.250;7.456;2023-12-20T03:08:10;0.38;;;0.38;;
22916;SDS011;11624;53.250;7.456;2023-12-20T03:10:38;0.10;;;0.10;;
22916;SDS011;11624;53.250;7.456;2023-12-20T03:13:06;0.43;;;0.43;;
22916;SDS011;11624;53.250;7.456;2023-12-20T03:15:36;3.40;;;1.52;;
22916;SDS011;11624;53.250;7.456;2023-12-20T03:18:04;0.35;;;0.35;;
22916;SDS011;11624;53.250;7.456;2023-12-20T03:20:33;0.17;;;0.13;;
22916;SDS011;11624;53.250;7.456;2023-12-20T03:23:01;0.70;;;0.40;;
22916;SDS011;11624;53.250;7.456;2023-12-20T03:25:29;0.75;;;0.57;;
22916;SDS011;11624;53.250;7.456;2023-12-20T03:27:57;2.25;;;1.48;;
22916;SDS011;11624;53.250;7.456;2023-12-20T03:30:26;2.08;;;1.30;;
22916;SDS011;11624;53.250;7.456;2023-12-20T03:32:55;0.43;;;0.25;;
22916;SDS011;11624;53.250;7.456;2023-12-20T03:35:23;0.43;;;0.40;;
22916;SDS011;11624;53.250;7.456;2023-12-20T03:37:51;0.50;;;0.50;;
22916;SDS011;11624;53.250;7.456;2023-12-20T03:40:20;0.63;;;0.40;;
22916;SDS011;11624;53.250;7.456;2023-12-20T03:42:49;0.00;;;0.00;;
22916;SDS011;11624;53.250;7.456;2023-12-20T03:45:17;0.15;;;0.15;;
22916;SDS011;11624;53.250;7.456;2023-12-20T03:47:45;3.35;;;0.68;;
22916;SDS011;11624;53.250;7.456;2023-12-20T03:50:16;29.73;;;3.15;;
22916;SDS011;11624;53.250;7.456;2023-12-20T03:52:44;9.05;;;1.75;;
22916;SDS011;11624;53.250;7.456;2023-12-20T03:55:12;19.77;;;2.83;;
22916;SDS011;11624;53.250;7.456;2023-12-20T03:57:41;14.88;;;2.78;;
22916;SDS011;11624;53.250;7.456;2023-12-20T04:00:10;15.82;;;2.25;;
22916;SDS011;11624;53.250;7.456;2023-12-20T04:02:39;20.63;;;2.75;;
22916;SDS011;11624;53.250;7.456;2023-12-20T04:05:08;18.60;;;2.80;;
22916;SDS011;11624;53.250;7.456;2023-12-20T04:07:38;19.58;;;2.95;;
22916;SDS011;11624;53.250;7.456;2023-12-20T04:10:07;15.57;;;2.50;;
22916;SDS011;11624;53.250;7.456;2023-12-20T04:12:36;18.23;;;3.25;;
22916;SDS011;11624;53.250;7.456;2023-12-20T04:15:04;21.00;;;2.72;;
22916;SDS011;11624;53.250;7.456;2023-12-20T04:17:36;14.32;;;2.95;;
22916;SDS011;11624;53.250;7.456;2023-12-20T04:20:05;23.83;;;3.40;;
22916;SDS011;11624;53.250;7.456;2023-12-20T04:22:34;16.35;;;3.13;;
22916;SDS011;11624;53.250;7.456;2023-12-20T04:25:04;17.58;;;2.60;;
22916;SDS011;11624;53.250;7.456;2023-12-20T04:27:32;27.70;;;3.40;;
22916;SDS011;11624;53.250;7.456;2023-12-20T04:30:01;22.08;;;3.60;;
22916;SDS011;11624;53.250;7.456;2023-12-20T04:32:29;21.10;;;2.97;;
22916;SDS011;11624;53.250;7.456;2023-12-20T04:34:58;13.98;;;2.53;;
22916;SDS011;11624;53.250;7.456;2023-12-20T04:37:26;11.88;;;2.38;;
22916;SDS011;11624;53.250;7.456;2023-12-20T04:39:54;16.55;;;2.72;;
22916;SDS011;11624;53.250;7.456;2023-12-20T04:42:24;18.38;;;2.88;;
22916;SDS011;11624;53.250;7.456;2023-12-20T04:44:52;26.75;;;3.42;;
22916;SDS011;11624;53.250;7.456;2023-12-20T04:47:20;18.60;;;2.70;;
22916;SDS011;11624;53.250;7.456;2023-12-20T04:49:49;19.13;;;2.97;;
22916;SDS011;11624;53.250;7.456;2023-12-20T04:52:17;19.98;;;2.55;;
22916;SDS011;11624;53.250;7.456;2023-12-20T04:54:46;21.67;;;3.05;;
22916;SDS011;11624;53.250;7.456;2023-12-20T04:57:15;18.08;;;3.28;;
22916;SDS011;11624;53.250;7.456;2023-12-20T04:59:44;21.98;;;3.20;;
22916;SDS011;11624;53.250;7.456;2023-12-20T05:02:12;19.73;;;2.67;;
22916;SDS011;11624;53.250;7.456;2023-12-20T05:04:41;21.33;;;3.22;;
22916;SDS011;11624;53.250;7.456;2023-12-20T05:07:09;20.60;;;3.25;;
22916;SDS011;11624;53.250;7.456;2023-12-20T05:09:37;20.52;;;3.55;;
22916;SDS011;11624;53.250;7.456;2023-12-20T05:12:06;23.23;;;4.22;;
22916;SDS011;11624;53.250;7.456;2023-12-20T05:14:34;24.25;;;3.42;;
22916;SDS011;11624;53.250;7.456;2023-12-20T05:17:04;15.85;;;2.92;;
22916;SDS011;11624;53.250;7.456;2023-12-20T05:19:32;29.85;;;4.15;;
22916;SDS011;11624;53.250;7.456;2023-12-20T05:22:02;23.75;;;3.63;;
22916;SDS011;11624;53.250;7.456;2023-12-20T05:24:30;26.52;;;4.40;;
22916;SDS011;11624;53.250;7.456;2023-12-20T05:26:59;28.17;;;4.45;;
22916;SDS011;11624;53.250;7.456;2023-12-20T05:29:27;16.23;;;3.80;;
22916;SDS011;11624;53.250;7.456;2023-12-20T05:31:55;20.95;;;3.80;;
22916;SDS011;11624;53.250;7.456;2023-12-20T05:34:25;20.80;;;3.50;;
22916;SDS011;11624;53.250;7.456;2023-12-20T05:36:53;23.35;;;4.20;;
22916;SDS011;11624;53.250;7.456;2023-12-20T05:39:21;22.25;;;3.95;;
22916;SDS011;11624;53.250;7.456;2023-12-20T05:41:49;18.33;;;3.33;;
22916;SDS011;11624;53.250;7.456;2023-12-20T05:44:18;27.20;;;3.72;;
22916;SDS011;11624;53.250;7.456;2023-12-20T05:46:46;19.83;;;3.88;;
22916;SDS011;11624;53.250;7.456;2023-12-20T05:49:14;20.60;;;3.63;;
22916;SDS011;11624;53.250;7.456;2023-12-20T05:51:44;22.13;;;3.78;;
22916;SDS011;11624;53.250;7.456;2023-12-20T05:54:12;19.02;;;3.38;;
22916;SDS011;11624;53.250;7.456;2023-12-20T05:56:41;18.60;;;4.15;;
22916;SDS011;11624;53.250;7.456;2023-12-20T05:59:09;24.80;;;3.88;;
22916;SDS011;11624;53.250;7.456;2023-12-20T06:01:37;21.48;;;3.22;;
22916;SDS011;11624;53.250;7.456;2023-12-20T06:04:05;26.20;;;3.55;;
22916;SDS011;11624;53.250;7.456;2023-12-20T06:06:34;18.17;;;3.10;;
22916;SDS011;11624;53.250;7.456;2023-12-20T06:09:03;23.52;;;3.50;;
22916;SDS011;11624;53.250;7.456;2023-12-20T06:11:32;17.60;;;2.92;;
22916;SDS011;11624;53.250;7.456;2023-12-20T06:14:00;18.63;;;3.90;;
22916;SDS011;11624;53.250;7.456;2023-12-20T06:16:28;17.25;;;3.05;;
22916;SDS011;11624;53.250;7.456;2023-12-20T06:18:56;23.92;;;3.65;;
22916;SDS011;11624;53.250;7.456;2023-12-20T06:21:25;20.58;;;3.50;;
22916;SDS011;11624;53.250;7.456;2023-12-20T06:23:53;18.05;;;3.17;;
22916;SDS011;11624;53.250;7.456;2023-12-20T06:26:23;28.05;;;4.47;;
22916;SDS011;11624;53.250;7.456;2023-12-20T06:28:51;19.02;;;3.42;;
22916;SDS011;11624;53.250;7.456;2023-12-20T06:31:19;21.30;;;4.53;;
22916;SDS011;11624;53.250;7.456;2023-12-20T06:33:47;17.08;;;3.50;;
22916;SDS011;11624;53.250;7.456;2023-12-20T06:36:24;19.27;;;3.08;;
22916;SDS011;11624;53.250;7.456;2023-12-20T06:38:52;15.13;;;2.90;;
22916;SDS011;11624;53.250;7.456;2023-12-20T06:41:20;20.73;;;3.05;;
22916;SDS011;11624;53.250;7.456;2023-12-20T06:43:52;21.90;;;3.63;;
22916;SDS011;11624;53.250;7.456;2023-12-20T06:46:20;20.33;;;3.45;;
22916;SDS011;11624;53.250;7.456;2023-12-20T06:48:48;18.75;;;3.33;;
22916;SDS011;11624;53.250;7.456;2023-12-20T06:51:17;20.10;;;3.17;;
22916;SDS011;11624;53.250;7.456;2023-12-20T06:53:46;20.92;;;3.65;;
22916;SDS011;11624;53.250;7.456;2023-12-20T06:56:14;21.55;;;4.22;;
22916;SDS011;11624;53.250;7.456;2023-12-20T06:58:45;26.70;;;3.78;;
22916;SDS011;11624;53.250;7.456;2023-12-20T07:01:15;20.70;;;3.63;;
22916;SDS011;11624;53.250;7.456;2023-12-20T07:03:44;26.73;;;4.47;;
22916;SDS011;11624;53.250;7.456;2023-12-20T07:06:12;21.58;;;3.70;;
22916;SDS011;11624;53.250;7.456;2023-12-20T07:08:43;23.20;;;3.63;;
22916;SDS011;11624;53.250;7.456;2023-12-20T07:11:11;24.98;;;3.65;;
22916;SDS011;11624;53.250;7.456;2023-12-20T07:13:39;22.50;;;3.72;;
22916;SDS011;11624;53.250;7.456;2023-12-20T07:16:08;22.15;;;3.90;;
22916;SDS011;11624;53.250;7.456;2023-12-20T07:18:37;18.77;;;4.03;;
22916;SDS011;11624;53.250;7.456;2023-12-20T07:21:05;26.52;;;3.85;;
22916;SDS011;11624;53.250;7.456;2023-12-20T07:23:34;22.38;;;3.00;;
22916;SDS011;11624;53.250;7.456;2023-12-20T07:26:03;21.27;;;3.28;;
22916;SDS011;11624;53.250;7.456;2023-12-20T07:28:31;24.40;;;3.55;;
22916;SDS011;11624;53.250;7.456;2023-12-20T07:31:00;16.67;;;3.72;;
22916;SDS011;11624;53.250;7.456;2023-12-20T07:33:28;25.75;;;4.00;;
22916;SDS011;11624;53.250;7.456;2023-12-20T07:36:06;15.45;;;3.17;;
22916;SDS011;11624;53.250;7.456;2023-12-20T07:38:35;20.60;;;3.58;;
22916;SDS011;11624;53.250;7.456;2023-12-20T07:41:03;20.02;;;3.60;;
22916;SDS011;11624;53.250;7.456;2023-12-20T07:43:32;19.65;;;3.47;;
22916;SDS011;11624;53.250;7.456;2023-12-20T07:46:03;22.02;;;4.10;;
22916;SDS011;11624;53.250;7.456;2023-12-20T07:48:33;19.33;;;3.05;;
22916;SDS011;11624;53.250;7.456;2023-12-20T07:51:02;22.30;;;4.03;;
22916;SDS011;11624;53.250;7.456;2023-12-20T07:53:32;20.85;;;4.43;;
22916;SDS011;11624;53.250;7.456;2023-12-20T07:56:00;21.83;;;3.55;;
22916;SDS011;11624;53.250;7.456;2023-12-20T07:58:29;25.05;;;3.83;;
22916;SDS011;11624;53.250;7.456;2023-12-20T08:01:15;20.80;;;3.50;;
22916;SDS011;11624;53.250;7.456;2023-12-20T08:03:44;22.50;;;3.72;;
22916;SDS011;11624;53.250;7.456;2023-12-20T08:06:14;24.35;;;3.90;;
22916;SDS011;11624;53.250;7.456;2023-12-20T08:08:45;21.15;;;3.33;;
22916;SDS011;11624;53.250;7.456;2023-12-20T08:11:26;20.77;;;3.67;;
22916;SDS011;11624;53.250;7.456;2023-12-20T08:13:55;23.65;;;3.75;;
22916;SDS011;11624;53.250;7.456;2023-12-20T08:16:23;26.52;;;3.95;;
22916;SDS011;11624;53.250;7.456;2023-12-20T08:18:51;28.65;;;3.78;;
22916;SDS011;11624;53.250;7.456;2023-12-20T08:21:20;25.23;;;3.90;;
22916;SDS011;11624;53.250;7.456;2023-12-20T08:23:50;22.25;;;4.38;;
22916;SDS011;11624;53.250;7.456;2023-12-20T08:26:19;21.05;;;3.45;;
22916;SDS011;11624;53.250;7.456;2023-12-20T08:28:49;20.98;;;4.22;;
22916;SDS011;11624;53.250;7.456;2023-12-20T08:31:17;22.63;;;4.22;;
22916;SDS011;11624;53.250;7.456;2023-12-20T08:33:46;21.58;;;3.38;;
22916;SDS011;11624;53.250;7.456;2023-12-20T08:36:16;23.42;;;4.07;;
22916;SDS011;11624;53.250;7.456;2023-12-20T08:38:45;25.30;;;4.25;;
22916;SDS011;11624;53.250;7.456;2023-12-20T08:41:15;19.77;;;3.33;;
22916;SDS011;11624;53.250;7.456;2023-12-20T08:43:44;22.92;;;3.97;;
22916;SDS011;11624;53.250;7.456;2023-12-20T08:46:13;21.17;;;3.85;;
22916;SDS011;11624;53.250;7.456;2023-12-20T08:48:42;21.05;;;3.50;;
22916;SDS011;11624;53.250;7.456;2023-12-20T08:51:12;19.13;;;4.13;;
22916;SDS011;11624;53.250;7.456;2023-12-20T08:53:41;7.25;;;1.23;;
22916;SDS011;11624;53.250;7.456;2023-12-20T08:56:11;6.45;;;1.17;;
22916;SDS011;11624;53.250;7.456;2023-12-20T08:58:42;5.53;;;1.25;;
22916;SDS011;11624;53.250;7.456;2023-12-20T09:01:10;6.97;;;1.30;;
22916;SDS011;11624;53.250;7.456;2023-12-20T09:03:39;9.30;;;1.02;;
22916;SDS011;11624;53.250;7.456;2023-12-20T09:06:07;7.95;;;1.45;;
22916;SDS011;11624;53.250;7.456;2023-12-20T09:08:36;5.30;;;1.13;;
22916;SDS011;11624;53.250;7.456;2023-12-20T09:11:04;8.27;;;1.63;;
22916;SDS011;11624;53.250;7.456;2023-12-20T09:13:32;11.73;;;1.52;;
22916;SDS011;11624;53.250;7.456;2023-12-20T09:16:02;15.70;;;1.48;;
22916;SDS011;11624;53.250;7.456;2023-12-20T09:18:31;12.10;;;1.58;;
22916;SDS011;11624;53.250;7.456;2023-12-20T09:20:59;13.23;;;1.73;;
22916;SDS011;11624;53.250;7.456;2023-12-20T09:23:28;8.05;;;1.58;;
22916;SDS011;11624;53.250;7.456;2023-12-20T09:25:56;13.38;;;2.88;;
22916;SDS011;11624;53.250;7.456;2023-12-20T09:28:25;9.73;;;1.70;;
22916;SDS011;11624;53.250;7.456;2023-12-20T09:30:53;14.00;;;1.90;;
22916;SDS011;11624;53.250;7.456;2023-12-20T09:33:23;14.93;;;1.98;;
22916;SDS011;11624;53.250;7.456;2023-12-20T09:35:51;14.70;;;2.10;;
22916;SDS011;11624;53.250;7.456;2023-12-20T09:38:20;9.20;;;1.60;;
22916;SDS011;11624;53.250;7.456;2023-12-20T09:40:49;11.63;;;1.80;;
22916;SDS011;11624;53.250;7.456;2023-12-20T09:43:18;8.13;;;1.42;;
22916;SDS011;11624;53.250;7.456;2023-12-20T09:45:47;8.98;;;1.30;;
22916;SDS011;11624;53.250;7.456;2023-12-20T09:48:16;8.68;;;1.40;;
22916;SDS011;11624;53.250;7.456;2023-12-20T09:50:47;7.28;;;1.20;;
22916;SDS011;11624;53.250;7.456;2023-12-20T09:53:19;4.60;;;1.13;;
22916;SDS011;11624;53.250;7.456;2023-12-20T09:55:50;5.03;;;0.90;;
22916;SDS011;11624;53.250;7.456;2023-12-20T09:58:19;5.65;;;1.30;;
22916;SDS011;11624;53.250;7.456;2023-12-20T10:00:48;8.35;;;1.10;;
22916;SDS011;11624;53.250;7.456;2023-12-20T10:03:17;8.27;;;1.20;;
22916;SDS011;11624;53.250;7.456;2023-12-20T10:05:47;5.85;;;0.90;;
22916;SDS011;11624;53.250;7.456;2023-12-20T10:08:18;8.98;;;1.50;;
22916;SDS011;11624;53.250;7.456;2023-12-20T10:10:48;6.45;;;1.40;;
22916;SDS011;11624;53.250;7.456;2023-12-20T10:13:17;12.48;;;1.50;;
22916;SDS011;11624;53.250;7.456;2023-12-20T10:15:45;7.95;;;1.52;;
22916;SDS011;11624;53.250;7.456;2023-12-20T10:18:13;7.60;;;1.50;;
22916;SDS011;11624;53.250;7.456;2023-12-20T10:20:42;8.82;;;1.60;;
22916;SDS011;11624;53.250;7.456;2023-12-20T10:23:13;11.63;;;2.17;;
22916;SDS011;11624;53.250;7.456;2023-12-20T10:25:49;8.18;;;1.70;;
22916;SDS011;11624;53.250;7.456;2023-12-20T10:28:23;9.48;;;1.52;;
22916;SDS011;11624;53.250;7.456;2023-12-20T10:30:54;8.20;;;1.65;;
22916;SDS011;11624;53.250;7.456;2023-12-20T10:33:24;10.75;;;1.52;;
22916;SDS011;11624;53.250;7.456;2023-12-20T10:35:53;9.68;;;1.52;;
22916;SDS011;11624;53.250;7.456;2023-12-20T10:38:24;14.70;;;1.65;;
22916;SDS011;11624;53.250;7.456;2023-12-20T10:40:53;6.78;;;1.60;;
22916;SDS011;11624;53.250;7.456;2023-12-20T10:43:25;9.32;;;1.67;;
22916;SDS011;11624;53.250;7.456;2023-12-20T10:45:57;6.82;;;1.42;;
22916;SDS011;11624;53.250;7.456;2023-12-20T10:48:25;10.52;;;1.38;;
22916;SDS011;11624;53.250;7.456;2023-12-20T10:50:57;11.50;;;1.65;;
22916;SDS011;11624;53.250;7.456;2023-12-20T10:53:27;11.82;;;1.45;;
22916;SDS011;11624;53.250;7.456;2023-12-20T10:55:55;11.32;;;1.73;;
22916;SDS011;11624;53.250;7.456;2023-12-20T10:58:27;14.38;;;1.88;;
22916;SDS011;11624;53.250;7.456;2023-12-20T11:00:59;14.63;;;2.10;;
22916;SDS011;11624;53.250;7.456;2023-12-20T11:03:29;10.75;;;1.95;;
22916;SDS011;11624;53.250;7.456;2023-12-20T11:06:03;14.07;;;2.95;;
22916;SDS011;11624;53.250;7.456;2023-12-20T11:08:40;15.32;;;2.60;;
22916;SDS011;11624;53.250;7.456;2023-12-20T11:11:14;16.27;;;2.35;;
22916;SDS011;11624;53.250;7.456;2023-12-20T11:13:53;15.95;;;2.30;;
22916;SDS011;11624;53.250;7.456;2023-12-20T11:16:24;17.17;;;2.38;;
22916;SDS011;11624;53.250;7.456;2023-12-20T11:19:06;12.35;;;2.20;;
22916;SDS011;11624;53.250;7.456;2023-12-20T11:21:34;16.08;;;2.55;;
22916;SDS011;11624;53.250;7.456;2023-12-20T11:24:04;22.58;;;2.58;;
22916;SDS011;11624;53.250;7.456;2023-12-20T11:26:33;13.43;;;2.75;;
22916;SDS011;11624;53.250;7.456;2023-12-20T11:31:59;20.58;;;2.17;;
22916;SDS011;11624;53.250;7.456;2023-12-20T11:34:27;11.07;;;1.58;;
22916;SDS011;11624;53.250;7.456;2023-12-20T11:36:59;19.35;;;2.42;;
22916;SDS011;11624;53.250;7.456;2023-12-20T11:39:29;14.88;;;2.15;;
22916;SDS011;11624;53.250;7.456;2023-12-20T11:42:03;16.83;;;2.85;;
22916;SDS011;11624;53.250;7.456;2023-12-20T11:44:32;9.40;;;1.95;;
22916;SDS011;11624;53.250;7.456;2023-12-20T11:47:01;18.42;;;2.53;;
22916;SDS011;11624;53.250;7.456;2023-12-20T11:49:29;15.57;;;2.45;;
22916;SDS011;11624;53.250;7.456;2023-12-20T11:51:57;15.82;;;2.70;;
22916;SDS011;11624;53.250;7.456;2023-12-20T11:54:27;14.27;;;2.28;;
22916;SDS011;11624;53.250;7.456;2023-12-20T11:56:57;13.13;;;2.13;;
22916;SDS011;11624;53.250;7.456;2023-12-20T11:59:25;18.35;;;2.35;;
22916;SDS011;11624;53.250;7.456;2023-12-20T12:01:54;13.50;;;2.30;;
22916;SDS011;11624;53.250;7.456;2023-12-20T12:04:27;14.93;;;2.55;;
22916;SDS011;11624;53.250;7.456;2023-12-20T12:06:55;31.33;;;3.10;;
22916;SDS011;11624;53.250;7.456;2023-12-20T12:09:24;17.60;;;2.80;;
22916;SDS011;11624;53.250;7.456;2023-12-20T12:11:53;14.35;;;2.50;;
22916;SDS011;11624;53.250;7.456;2023-12-20T12:14:21;19.48;;;3.22;;
22916;SDS011;11624;53.250;7.456;2023-12-20T12:16:50;14.20;;;2.42;;
22916;SDS011;11624;53.250;7.456;2023-12-20T12:19:20;18.48;;;2.63;;
22916;SDS011;11624;53.250;7.456;2023-12-20T12:21:49;17.60;;;2.78;;
22916;SDS011;11624;53.250;7.456;2023-12-20T12:24:20;20.85;;;3.38;;
22916;SDS011;11624;53.250;7.456;2023-12-20T12:26:56;17.33;;;2.65;;
22916;SDS011;11624;53.250;7.456;2023-12-20T12:29:25;12.07;;;2.60;;
22916;SDS011;11624;53.250;7.456;2023-12-20T12:31:53;16.15;;;2.95;;
22916;SDS011;11624;53.250;7.456;2023-12-20T12:34:22;17.58;;;3.20;;
22916;SDS011;11624;53.250;7.456;2023-12-20T12:36:50;18.50;;;2.55;;
22916;SDS011;11624;53.250;7.456;2023-12-20T12:39:19;18.85;;;2.88;;
22916;SDS011;11624;53.250;7.456;2023-12-20T12:41:47;21.67;;;3.40;;
22916;SDS011;11624;53.250;7.456;2023-12-20T12:44:17;21.98;;;2.97;;
22916;SDS011;11624;53.250;7.456;2023-12-20T12:46:45;12.77;;;2.28;;
22916;SDS011;11624;53.250;7.456;2023-12-20T12:49:16;9.40;;;2.03;;
22916;SDS011;11624;53.250;7.456;2023-12-20T12:51:45;12.65;;;2.55;;
22916;SDS011;11624;53.250;7.456;2023-12-20T12:54:13;16.08;;;2.40;;
22916;SDS011;11624;53.250;7.456;2023-12-20T12:56:42;11.98;;;1.90;;
22916;SDS011;11624;53.250;7.456;2023-12-20T12:59:11;15.05;;;2.60;;
22916;SDS011;11624;53.250;7.456;2023-12-20T13:01:41;13.93;;;2.67;;
22916;SDS011;11624;53.250;7.456;2023-12-20T13:04:10;17.88;;;2.78;;
22916;SDS011;11624;53.250;7.456;2023-12-20T13:06:38;11.10;;;1.83;;
22916;SDS011;11624;53.250;7.456;2023-12-20T13:09:07;11.77;;;2.30;;
22916;SDS011;11624;53.250;7.456;2023-12-20T13:11:37;15.43;;;2.65;;
22916;SDS011;11624;53.250;7.456;2023-12-20T13:14:05;17.40;;;2.15;;
22916;SDS011;11624;53.250;7.456;2023-12-20T13:16:37;15.25;;;3.10;;
22916;SDS011;11624;53.250;7.456;2023-12-20T13:19:06;8.98;;;2.33;;
22916;SDS011;11624;53.250;7.456;2023-12-20T13:21:35;13.00;;;2.47;;
22916;SDS011;11624;53.250;7.456;2023-12-20T13:24:04;16.40;;;2.88;;
22916;SDS011;11624;53.250;7.456;2023-12-20T13:26:32;17.15;;;2.80;;
22916;SDS011;11624;53.250;7.456;2023-12-20T13:29:01;17.20;;;2.97;;
22916;SDS011;11624;53.250;7.456;2023-12-20T13:31:29;14.70;;;2.55;;
22916;SDS011;11624;53.250;7.456;2023-12-20T13:33:57;12.10;;;2.00;;
22916;SDS011;11624;53.250;7.456;2023-12-20T13:36:28;17.83;;;2.45;;
22916;SDS011;11624;53.250;7.456;2023-12-20T13:38:56;16.15;;;3.17;;
22916;SDS011;11624;53.250;7.456;2023-12-20T13:41:25;16.13;;;3.55;;
22916;SDS011;11624;53.250;7.456;2023-12-20T13:43:53;14.63;;;2.70;;
22916;SDS011;11624;53.250;7.456;2023-12-20T13:46:21;15.07;;;2.67;;
22916;SDS011;11624;53.250;7.456;2023-12-20T13:48:50;13.02;;;2.80;;
22916;SDS011;11624;53.250;7.456;2023-12-20T13:51:18;20.88;;;2.63;;
22916;SDS011;11624;53.250;7.456;2023-12-20T13:53:48;11.35;;;2.40;;
22916;SDS011;11624;53.250;7.456;2023-12-20T13:56:16;21.90;;;3.05;;
22916;SDS011;11624;53.250;7.456;2023-12-20T13:58:46;16.45;;;2.38;;
22916;SDS011;11624;53.250;7.456;2023-12-20T14:01:15;14.10;;;2.50;;
22916;SDS011;11624;53.250;7.456;2023-12-20T14:03:43;11.15;;;2.67;;
22916;SDS011;11624;53.250;7.456;2023-12-20T14:06:12;18.75;;;2.78;;
22916;SDS011;11624;53.250;7.456;2023-12-20T14:08:41;15.00;;;2.65;;
22916;SDS011;11624;53.250;7.456;2023-12-20T14:11:11;15.05;;;2.22;;
22916;SDS011;11624;53.250;7.456;2023-12-20T14:13:42;14.52;;;2.22;;
22916;SDS011;11624;53.250;7.456;2023-12-20T14:16:10;15.02;;;2.30;;
22916;SDS011;11624;53.250;7.456;2023-12-20T14:18:39;12.77;;;2.33;;
22916;SDS011;11624;53.250;7.456;2023-12-20T14:21:07;21.73;;;2.38;;
22916;SDS011;11624;53.250;7.456;2023-12-20T14:23:35;12.20;;;2.17;;
22916;SDS011;11624;53.250;7.456;2023-12-20T14:26:03;12.38;;;2.15;;
22916;SDS011;11624;53.250;7.456;2023-12-20T14:28:33;12.75;;;2.20;;
22916;SDS011;11624;53.250;7.456;2023-12-20T14:31:01;13.13;;;2.30;;
22916;SDS011;11624;53.250;7.456;2023-12-20T14:33:30;11.70;;;2.20;;
22916;SDS011;11624;53.250;7.456;2023-12-20T14:35:58;19.52;;;2.58;;
22916;SDS011;11624;53.250;7.456;2023-12-20T14:38:25;19.00;;;1.92;;
22916;SDS011;11624;53.250;7.456;2023-12-20T14:40:53;14.00;;;1.90;;
22916;SDS011;11624;53.250;7.456;2023-12-20T14:43:22;11.00;;;2.20;;
22916;SDS011;11624;53.250;7.456;2023-12-20T14:45:51;16.60;;;2.72;;
22916;SDS011;11624;53.250;7.456;2023-12-20T14:48:20;10.52;;;2.28;;
22916;SDS011;11624;53.250;7.456;2023-12-20T14:50:48;16.20;;;2.90;;
22916;SDS011;11624;53.250;7.456;2023-12-20T14:53:17;11.23;;;2.15;;